Aérodrome :
LOGIN :

S'inscrire | Disclaimer

   EN    FR    IT 

 










Légende :    VFR   VFR Marginal   IFR   IFR Intensif   IFR Très Intensif
Visi : 
Plafond : 
>= 8 km
>= 3000ft
5 à 8 km
1000 à 3000 ft
1500m à 5 km
500 à 1000 ft
800 à 1500m
200 à 500 ft
< 800m
< 200 ft
Symboles :   Orages  Brouillard  Fortes neiges  Fortes précipitations  Vent > 20 kt
SIGMETs :   Divers  Orages  Givrage  Turbulence  Onde Orograph.  Cendres Volcan.






- Altitude de l'aérodrome : 375 ft
- Code IATA : MST


EHBK - Maastricht Aachen

DERNIER METAR :
  • 200125Z AUTO 33005KT 290V020 9999 -RA BKN009 BKN010 FEW015CB 05/04 Q1016 REDZRA

METARs EXPIRÉS :
  • 200055Z AUTO 32009KT 280V360 9999 -RA FEW002 BKN012 BKN014 FEW015CB 05/04 Q1016 REDZRA
  • 200025Z AUTO 32010KT 270V360 9999 -DZ FEW002 SCT012 BKN014 FEW015CB 05/04 Q1016 REDZ
  • 192355Z AUTO 31009KT 270V350 9999 -DZ SCT013 BKN015 OVC019 05/03 Q1016
  • 192325Z AUTO 31008KT 240V350 9999 FEW013 BKN016 OVC021 06/04 Q1015
  • 192255Z AUTO 31009KT 250V350 9999 SCT014 OVC016 06/04 Q1015
  • 192225Z AUTO 30007KT 250V350 9999 SCT016 BKN020 BKN030 06/03 Q1015
  • 192155Z AUTO 31009KT 250V360 9999 SCT014 BKN016 BKN020 06/03 Q1015
  • 192125Z AUTO 30009KT 250V360 9999 FEW015 BKN018 BKN025 06/04 Q1015
  • 192055Z AUTO 31009KT 250V350 9999 BKN016 OVC020 06/03 Q1014 REDZ TEMPO 7000 SHRA FEW020CB

TAF TAF EHBK
Valide du 20 à 00h jusqu'au 21 à 06h UTC


192317Z 2000/2106 32010KT 9999 BKN020
PROB40
TEMPO 2000/2009 6000 RA -SHRA BKN004 FEW015TCU
PROB30
TEMPO 2009/2106 7000 -SHRA FEW015TCU BKN020



MET'MAP, la Météo Aéronautique d'un coup d'oeil ! - Copyright ORBIFLY Décembre 2007 - Disclaimer

ORBIFLY MET'MAP TEAM :

Programmation & Développement : Alexandra Zaïnal
Sur une idée originale de : Baudouin d'Aumeries
Soutien technique & logistique : Manuel Goepfert
Assistance : Marc-Olivier Méhu




SOURCES & CREDITS :

   NOAA